createdAt,value
2023-02-19T00:02:36.757Z,100257.00
2023-02-19T00:07:39.867Z,100254.25
2023-02-19T00:12:44.384Z,100241.88
2023-02-19T00:17:47.548Z,100248.75
2023-02-19T00:22:50.753Z,100243.53
2023-02-19T00:27:55.530Z,100251.91
2023-02-19T00:32:58.802Z,100243.38
2023-02-19T00:38:03.208Z,100235.28
2023-02-19T00:43:07.794Z,100232.38
2023-02-19T00:48:10.879Z,100221.75
2023-02-19T00:53:13.961Z,100217.66
2023-02-19T00:58:18.487Z,100226.84
2023-02-19T01:03:29.244Z,100223.41
2023-02-19T01:08:33.598Z,100217.47
2023-02-19T01:13:38.781Z,100222.00
2023-02-19T01:18:42.281Z,100218.59
2023-02-19T01:23:47.303Z,100207.00
2023-02-19T01:28:52.278Z,100198.34
2023-02-19T01:33:57.563Z,100173.84
2023-02-19T01:39:03.789Z,100168.03
2023-02-19T01:44:11.442Z,100161.69
2023-02-19T01:49:19.996Z,100154.09
2023-02-19T01:54:26.383Z,100127.78
2023-02-19T01:59:32.810Z,100133.56
2023-02-19T02:04:36.503Z,100111.78
2023-02-19T02:10:11.588Z,100102.97
2023-02-19T02:15:19.280Z,100096.09
2023-02-19T02:20:34.856Z,100074.91
2023-02-19T02:26:09.523Z,100070.50
2023-02-19T02:31:19.194Z,100060.19
2023-02-19T02:36:29.310Z,100044.75
2023-02-19T02:41:34.343Z,100044.06
2023-02-19T02:46:42.871Z,100036.34
2023-02-19T02:51:50.594Z,100044.63
2023-02-19T02:56:55.963Z,100048.75
2023-02-19T03:02:14.269Z,100031.56
2023-02-19T03:07:18.493Z,100019.84
2023-02-19T03:12:40.538Z,100000.56
2023-02-19T03:18:07.868Z,99993.41
2023-02-19T03:23:13.241Z,99995.63
2023-02-19T03:28:19.730Z,100001.66
2023-02-19T03:33:28.308Z,99998.34
2023-02-19T03:38:40.781Z,99995.75
2023-02-19T03:43:51.987Z,99993.97
2023-02-19T03:49:02.951Z,99973.97
2023-02-19T03:54:14.744Z,99976.47
2023-02-19T03:59:21.462Z,99972.09
2023-02-19T04:04:30.605Z,99982.94
2023-02-19T04:09:38.385Z,99963.00
2023-02-19T04:14:46.720Z,99973.88
2023-02-19T04:19:52.510Z,99990.25
2023-02-19T04:24:56.744Z,99995.47
2023-02-19T04:29:59.992Z,100009.38
2023-02-19T04:35:04.390Z,100019.16
2023-02-19T04:40:08.332Z,100025.34
2023-02-19T04:45:11.622Z,100019.41
2023-02-19T04:50:16.435Z,100016.78
2023-02-19T04:55:19.620Z,100016.25
2023-02-19T05:00:23.092Z,100011.44
2023-02-19T05:05:27.768Z,100014.88
2023-02-19T05:10:30.958Z,100014.44
2023-02-19T05:15:34.017Z,100016.09
2023-02-19T05:20:40.244Z,100017.63
2023-02-19T05:25:43.253Z,100022.84
2023-02-19T05:30:47.365Z,100021.03
2023-02-19T05:35:54.556Z,100014.88
2023-02-19T05:40:57.727Z,100016.38
2023-02-19T05:46:01.043Z,100015.56
2023-02-19T05:51:07.463Z,100028.66
2023-02-19T05:56:28.073Z,100030.28
2023-02-19T06:01:31.849Z,100040.88
2023-02-19T06:06:37.252Z,100037.19
2023-02-19T06:11:41.468Z,100051.91
2023-02-19T06:16:44.717Z,100059.59
2023-02-19T06:21:51.346Z,100064.69
2023-02-19T06:26:54.540Z,100064.81
2023-02-19T06:31:57.931Z,100094.44
2023-02-19T06:37:02.757Z,100094.69
2023-02-19T06:42:06.120Z,100120.84
2023-02-19T06:47:09.310Z,100150.75
2023-02-19T06:52:13.934Z,100168.84
2023-02-19T06:57:17.157Z,100166.25
2023-02-19T07:02:20.258Z,100191.69
2023-02-19T07:07:24.788Z,100207.03
2023-02-19T07:12:27.806Z,100220.16
2023-02-19T07:17:31.103Z,100232.75
2023-02-19T07:22:38.999Z,100240.03
2023-02-19T07:27:42.270Z,100267.75
2023-02-19T07:32:45.712Z,100281.50
2023-02-19T07:37:50.411Z,100291.66
2023-02-19T07:42:53.800Z,100327.03
2023-02-19T07:47:56.915Z,100347.31
2023-02-19T07:53:01.832Z,100352.38
2023-02-19T07:58:06.242Z,100359.50
2023-02-19T08:03:09.943Z,100386.88
2023-02-19T08:08:15.933Z,100396.31
2023-02-19T08:13:23.673Z,100414.13
2023-02-19T08:18:34.623Z,100417.66
2023-02-19T08:23:39.267Z,100434.84
2023-02-19T08:28:44.285Z,100449.00
2023-02-19T08:33:58.239Z,100486.16
2023-02-19T08:39:02.970Z,100496.03
2023-02-19T08:44:06.273Z,100509.44
2023-02-19T08:49:13.249Z,100501.53
2023-02-19T08:54:17.891Z,100532.31
2023-02-19T08:59:22.009Z,100547.16
2023-02-19T09:04:25.411Z,100556.44
2023-02-19T09:09:30.541Z,100567.28
2023-02-19T09:14:34.540Z,100578.22
2023-02-19T09:19:45.716Z,100595.69
2023-02-19T09:24:50.526Z,100604.16
2023-02-19T09:29:56.080Z,100605.69
2023-02-19T09:35:02.806Z,100608.34
2023-02-19T09:40:09.661Z,100624.56
2023-02-19T09:45:23.166Z,100629.06
2023-02-19T09:50:33.902Z,100644.38
2023-02-19T09:55:43.243Z,100630.47
2023-02-19T10:00:51.130Z,100650.38
2023-02-19T10:05:56.561Z,100666.19
2023-02-19T10:11:01.667Z,100679.94
2023-02-19T10:16:10.061Z,100687.84
2023-02-19T10:21:19.762Z,100697.31
2023-02-19T10:26:28.693Z,100705.34
2023-02-19T10:31:33.460Z,100700.13
2023-02-19T10:36:43.025Z,100720.09
2023-02-19T10:41:47.569Z,100730.94
2023-02-19T10:46:56.753Z,100733.78
2023-02-19T10:52:15.766Z,100743.81
2023-02-19T10:57:35.258Z,100757.13
2023-02-19T11:02:39.177Z,100763.16
2023-02-19T11:07:46.375Z,100776.47
2023-02-19T11:12:54.411Z,100783.19
2023-02-19T11:18:00.592Z,100781.81
2023-02-19T11:23:16.302Z,100787.38
2023-02-19T11:28:31.464Z,100792.88
2023-02-19T11:33:34.584Z,100802.22
2023-02-19T11:38:37.866Z,100815.16
2023-02-19T11:44:08.735Z,100813.19
2023-02-19T11:49:25.691Z,100832.16
2023-02-19T11:54:45.672Z,100826.31
2023-02-19T12:00:02.494Z,100817.59
2023-02-19T12:05:19.445Z,100816.75
2023-02-19T12:10:33.410Z,100802.25
2023-02-19T12:16:12.861Z,100818.00
2023-02-19T12:21:30.085Z,100826.06
2023-02-19T12:26:46.558Z,100825.44
2023-02-19T12:32:22.294Z,100820.06
2023-02-19T12:37:35.744Z,100836.31
2023-02-19T12:42:51.354Z,100834.50
2023-02-19T12:48:02.133Z,100846.72
2023-02-19T12:53:12.498Z,100839.09
2023-02-19T12:58:29.697Z,100849.69
2023-02-19T13:03:40.550Z,100864.00
2023-02-19T13:09:05.873Z,100862.06
2023-02-19T13:14:19.056Z,100849.69
2023-02-19T13:19:23.617Z,100857.19
2023-02-19T13:24:29.956Z,100864.97
2023-02-19T13:29:46.751Z,100867.09
2023-02-19T13:35:04.940Z,100866.28
2023-02-19T13:40:22.530Z,100879.44
2023-02-19T13:45:34.302Z,100879.16
2023-02-19T13:50:39.048Z,100887.34
2023-02-19T13:55:53.592Z,100900.81
2023-02-19T14:00:58.184Z,100923.25
2023-02-19T14:06:06.423Z,100927.13
2023-02-19T14:11:09.929Z,100929.19
2023-02-19T14:16:54.185Z,100928.47
2023-02-19T14:21:58.813Z,100921.19
2023-02-19T14:27:02.578Z,100919.50
2023-02-19T14:32:07.281Z,100918.97
2023-02-19T14:37:18.984Z,100926.63
2023-02-19T14:42:27.184Z,100931.63
2023-02-19T14:47:35.044Z,100926.06
2023-02-19T14:52:45.702Z,100928.38
2023-02-19T14:57:51.589Z,100922.34
2023-02-19T15:02:57.798Z,100927.75
2023-02-19T15:08:07.678Z,100922.31
2023-02-19T15:13:17.672Z,100926.38
2023-02-19T15:18:24.090Z,100936.66
2023-02-19T15:23:31.701Z,100937.38
2023-02-19T15:28:35.447Z,100945.25
2023-02-19T15:33:38.514Z,100937.31
2023-02-19T15:38:43.211Z,100948.41
2023-02-19T15:43:54.367Z,100949.91
2023-02-19T15:49:09.357Z,100953.94
2023-02-19T15:54:27.172Z,100955.16
2023-02-19T15:59:37.679Z,100946.31
2023-02-19T16:04:45.752Z,100966.13
2023-02-19T16:09:50.587Z,100971.91
2023-02-19T16:14:58.435Z,100970.59
2023-02-19T16:20:04.570Z,100976.34
2023-02-19T16:25:29.897Z,100988.19
2023-02-19T16:30:36.316Z,100986.38
2023-02-19T16:35:45.325Z,101005.22
2023-02-19T16:41:12.362Z,101016.06
2023-02-19T16:46:21.205Z,101017.69
2023-02-19T16:51:27.074Z,101033.00
2023-02-19T16:56:36.445Z,101040.47
2023-02-19T17:01:39.950Z,101041.00
2023-02-19T17:06:50.653Z,101043.19
2023-02-19T17:11:55.310Z,101047.13
2023-02-19T17:17:01.093Z,101060.66
2023-02-19T17:22:05.747Z,101063.72
2023-02-19T17:27:12.014Z,101073.59
2023-02-19T17:32:17.661Z,101073.09
2023-02-19T17:37:21.220Z,101071.75
2023-02-19T17:42:28.515Z,101067.66
2023-02-19T17:47:31.849Z,101092.25
2023-02-19T17:52:35.095Z,101099.38
2023-02-19T17:57:39.929Z,101093.50
2023-02-19T18:02:43.493Z,101092.00
2023-02-19T18:07:49.482Z,101101.84
2023-02-19T18:12:54.484Z,101098.56
2023-02-19T18:18:00.129Z,101109.28
2023-02-19T18:23:04.373Z,101104.25
2023-02-19T18:28:19.131Z,101119.28
2023-02-19T18:33:22.225Z,101125.44
2023-02-19T18:38:26.296Z,101129.19
2023-02-19T18:43:37.378Z,101124.16
2023-02-19T18:48:40.952Z,101127.81
2023-02-19T18:53:44.826Z,101115.00
2023-02-19T18:58:50.523Z,101127.31
2023-02-19T19:03:57.624Z,101131.75
2023-02-19T19:09:01.000Z,101141.53
2023-02-19T19:14:09.307Z,101122.78
2023-02-19T19:19:12.909Z,101125.56
2023-02-19T19:24:16.581Z,101137.84
2023-02-19T19:29:22.450Z,101142.47
2023-02-19T19:34:25.596Z,101135.94
2023-02-19T19:39:36.398Z,101132.78
2023-02-19T19:44:41.008Z,101130.66
2023-02-19T19:49:47.991Z,101130.94
2023-02-19T19:54:54.147Z,101135.50
2023-02-19T19:59:58.817Z,101118.34
2023-02-19T20:05:02.696Z,101119.09
2023-02-19T20:10:08.758Z,101123.38
2023-02-19T20:15:15.136Z,101132.84
2023-02-19T20:20:18.837Z,101126.25
2023-02-19T20:25:28.443Z,101131.13
2023-02-19T20:30:33.151Z,101125.38
2023-02-19T20:35:42.703Z,101121.16
2023-02-19T20:40:45.797Z,101117.81
2023-02-19T20:45:53.714Z,101123.25
2023-02-19T20:50:59.576Z,101125.53
2023-02-19T20:56:03.325Z,101140.34
2023-02-19T21:01:08.423Z,101147.38
2023-02-19T21:06:12.295Z,101155.78
2023-02-19T21:11:15.558Z,101152.66
2023-02-19T21:16:20.910Z,101136.47
2023-02-19T21:21:26.319Z,101139.16
2023-02-19T21:26:36.399Z,101146.81
2023-02-19T21:31:42.955Z,101149.28
2023-02-19T21:36:46.574Z,101147.03
2023-02-19T21:41:51.404Z,101157.63
2023-02-19T21:46:56.065Z,101140.59
2023-02-19T21:51:59.566Z,101153.94
2023-02-19T21:57:04.178Z,101138.88
2023-02-19T22:02:10.768Z,101135.97
2023-02-19T22:07:14.009Z,101136.41
2023-02-19T22:12:17.286Z,101140.59
2023-02-19T22:17:22.486Z,101133.47
2023-02-19T22:22:26.869Z,101119.28
2023-02-19T22:27:30.322Z,101108.75
2023-02-19T22:32:35.097Z,101097.88
2023-02-19T22:37:38.308Z,101086.19
2023-02-19T22:42:41.580Z,101098.63
2023-02-19T22:47:47.053Z,101104.25
2023-02-19T22:52:54.691Z,101105.69
2023-02-19T22:57:57.824Z,101109.78
2023-02-19T23:03:02.288Z,101106.09
2023-02-19T23:08:05.817Z,101111.81
2023-02-19T23:13:09.120Z,101105.53
2023-02-19T23:18:14.104Z,101106.88
2023-02-19T23:23:17.377Z,101099.69
2023-02-19T23:28:20.499Z,101100.19
2023-02-19T23:33:24.988Z,101092.31
2023-02-19T23:38:28.241Z,101082.69
2023-02-19T23:43:31.511Z,101085.84
2023-02-19T23:48:36.354Z,101091.72
2023-02-19T23:53:39.570Z,101072.63
2023-02-19T23:58:43.072Z,101056.19
